Time;durP1;ratioP1;P1;durP2;ratioP2;P2;SDS_P1;SDS_P2;PMS_P1;PMS_P2;Temp;Humidity;BMP_temperature;BMP_pressure;BME280_temperature;BME280_humidity;BME280_pressure;Samples;Min_cycle;Max_cycle;Signal;HPM_P1;HPM_P2
2024/02/09 00:01:19;;;;;;;;;;;10.70;99.90;;;-146.41;100.00;57768.22;5028878;28;1215;-69
2024/02/09 00:03:46;;;;;;;;;;;10.70;99.90;;;-146.41;100.00;57768.22;5028917;28;3242;-68
2024/02/09 00:06:13;;;;;;;;;;;10.70;99.90;;;-146.41;100.00;57768.22;5025817;28;1244;-69
2024/02/09 00:08:40;;;;;;;;;;;10.60;99.90;;;-146.41;100.00;57768.22;5030362;28;1303;-69
2024/02/09 00:11:11;;;;;;;;;;;10.60;99.90;;;-146.41;100.00;57768.22;5026851;28;1254;-69
2024/02/09 00:13:42;;;;;;;;;;;10.50;99.90;;;-146.41;100.00;57768.22;5012119;28;1463;-69
2024/02/09 00:16:11;;;;;;;;;;;10.40;99.90;;;-146.41;100.00;57768.22;5029804;28;2177;-68
2024/02/09 00:18:39;;;;;;;;;;;10.30;99.90;;;-146.41;100.00;57768.22;5034035;28;1969;-68
2024/02/09 00:21:10;;;;;;;;;;;10.20;99.90;;;-146.41;100.00;57768.22;5028553;28;1253;-68
2024/02/09 00:23:37;;;;;;;;;;;10.20;99.90;;;-146.41;100.00;57768.22;5032087;28;1244;-68
2024/02/09 00:26:04;;;;;;;;;;;10.10;99.90;;;-146.41;100.00;57768.22;5026508;28;1430;-68
2024/02/09 00:28:30;;;;;;;;;;;10.00;99.90;;;-146.41;100.00;57768.22;5025484;28;1408;-69
2024/02/09 00:30:57;;;;;;;;;;;9.90;99.90;;;-146.41;100.00;57768.22;5028964;28;1782;-69
2024/02/09 00:33:24;;;;;;;;;;;9.90;99.90;;;-146.41;100.00;57768.22;5030452;28;1258;-68
2024/02/09 00:35:51;;;;;;;;;;;9.80;99.90;;;-146.41;100.00;57768.22;5030060;28;1356;-69
2024/02/09 00:38:20;;;;;;;;;;;9.70;99.90;;;-146.41;100.00;57768.22;5029390;28;1222;-68
2024/02/09 00:40:48;;;;;;;;;;;9.70;99.90;;;-146.41;100.00;57768.22;5030198;28;3301;-69
2024/02/09 00:43:17;;;;;;;;;;;9.60;99.90;;;-146.41;100.00;57768.22;5024162;28;2660;-68
2024/02/09 00:45:43;;;;;;;;;;;9.60;99.90;;;-146.41;100.00;57768.22;5021493;28;1673;-67
2024/02/09 00:48:11;;;;;;;;;;;9.50;99.90;;;-146.41;100.00;57768.22;5027342;28;2696;-68
2024/02/09 00:50:38;;;;;;;;;;;9.50;99.90;;;-146.41;100.00;57768.22;5026782;28;1260;-68
2024/02/09 00:53:08;;;;;;;;;;;9.50;99.90;;;-146.41;100.00;57768.22;5029964;28;1216;-69
2024/02/09 00:55:34;;;;;;;;;;;9.40;99.90;;;-146.41;100.00;57768.22;5025926;28;1528;-69
2024/02/09 00:58:01;;;;;;;;;;;9.30;99.90;;;-146.41;100.00;57768.22;5025064;28;1436;-69
2024/02/09 01:00:30;;;;;;;;;;;9.30;99.90;;;-146.41;100.00;57768.22;5029148;28;1981;-68
2024/02/09 01:02:58;;;;;;;;;;;9.30;99.90;;;-146.41;100.00;57768.22;5027820;28;2027;-68
2024/02/09 01:05:25;;;;;;;;;;;9.30;99.90;;;-146.41;100.00;57768.22;5028952;28;1377;-67
2024/02/09 01:07:51;;;;;;;;;;;9.30;99.90;;;-146.41;100.00;57768.22;5028210;28;1321;-68
2024/02/09 01:10:18;;;;;;;;;;;9.30;99.90;;;-146.41;100.00;57768.22;5027899;28;1372;-68
2024/02/09 02:46:37;;;;;;;;;;;9.20;99.90;;;-146.41;100.00;57768.22;5016979;28;2456;-69
2024/02/09 03:05:38;;;;;;;;;;;9.20;99.90;;;-146.41;100.00;57768.22;5016723;28;1379;-69
2024/02/09 03:08:07;;;;;;;;;;;9.20;99.90;;;-146.41;100.00;57768.22;5017232;28;2576;-68
2024/02/09 03:10:53;;;;;;;;;;;9.20;99.90;;;-146.41;100.00;57768.22;5020117;28;2353;-69
2024/02/09 03:13:21;;;;;;;;;;;9.20;99.90;;;-146.41;100.00;57768.22;5016098;28;1101;-68
2024/02/09 03:15:48;;;;;;;;;;;9.20;99.90;;;-146.41;100.00;57768.22;5017718;28;1280;-69
2024/02/09 03:18:17;;;;;;;;;;;9.20;99.90;;;-146.41;100.00;57768.22;5019821;28;1165;-69
2024/02/09 03:20:44;;;;;;;;;;;9.20;99.90;;;-146.41;100.00;57768.22;5020917;28;1997;-69
2024/02/09 03:23:16;;;;;;;;;;;9.20;99.90;;;-146.41;100.00;57768.22;5019746;28;2318;-69
2024/02/09 03:25:44;;;;;;;;;;;9.20;99.90;;;-146.41;100.00;57768.22;5019357;28;1722;-69
2024/02/09 03:28:12;;;;;;;;;;;9.30;99.90;;;-146.41;100.00;57768.22;5019433;28;1136;-68
2024/02/09 03:30:39;;;;;;;;;;;9.20;99.90;;;-146.41;100.00;57768.22;5020891;28;1116;-69
2024/02/09 03:33:06;;;;;;;;;;;9.20;99.90;;;-146.41;100.00;57768.22;5019385;28;1723;-69
2024/02/09 03:35:33;;;;;;;;;;;9.30;99.90;;;-146.41;100.00;57768.22;5019999;28;2001;-69
2024/02/09 03:38:00;;;;;;;;;;;9.30;99.90;;;-146.41;100.00;57768.22;5015407;28;1402;-69
2024/02/09 03:40:27;;;;;;;;;;;9.30;99.90;;;-146.41;100.00;57768.22;5020928;28;1930;-69
2024/02/09 03:42:54;;;;;;;;;;;9.30;99.90;;;-146.41;100.00;57768.22;5021394;28;1123;-68
2024/02/09 03:45:21;;;;;;;;;;;9.30;99.90;;;-146.41;100.00;57768.22;5016462;28;1285;-69
2024/02/09 03:47:47;;;;;;;;;;;9.30;99.90;;;-146.41;100.00;57768.22;5014283;28;3259;-69
2024/02/09 03:50:15;;;;;;;;;;;9.40;99.90;;;-146.41;100.00;57768.22;5015252;28;2683;-69
2024/02/09 03:52:44;;;;;;;;;;;9.30;99.90;;;-146.41;100.00;57768.22;5018401;28;1519;-68
2024/02/09 03:55:16;;;;;;;;;;;9.30;99.90;;;-146.41;100.00;57768.22;5017781;28;1398;-68
2024/02/09 03:57:46;;;;;;;;;;;9.40;99.90;;;-146.41;100.00;57768.22;5019051;28;1188;-69
2024/02/09 04:00:15;;;;;;;;;;;9.30;99.90;;;-146.41;100.00;57768.22;5017228;28;1894;-69
2024/02/09 04:02:43;;;;;;;;;;;9.30;99.90;;;-146.41;100.00;57768.22;5021715;28;998;-69
2024/02/09 04:05:10;;;;;;;;;;;9.30;99.90;;;-146.41;100.00;57768.22;5021697;28;2011;-69
2024/02/09 04:07:37;;;;;;;;;;;9.40;99.90;;;-146.41;100.00;57768.22;5019964;28;1375;-69
2024/02/09 04:10:05;;;;;;;;;;;9.30;99.90;;;-146.41;100.00;57768.22;5022557;28;1222;-69
2024/02/09 04:12:53;;;;;;;;;;;9.40;99.90;;;-146.41;100.00;57768.22;5020564;28;2071;-68
2024/02/09 04:15:21;;;;;;;;;;;9.40;99.90;;;-146.41;100.00;57768.22;5019783;28;1446;-69
2024/02/09 04:17:51;;;;;;;;;;;9.30;99.90;;;-146.41;100.00;57768.22;5024722;28;2129;-69
2024/02/09 04:20:18;;;;;;;;;;;9.30;99.90;;;-146.41;100.00;57768.22;5024098;28;1906;-68
2024/02/09 04:22:45;;;;;;;;;;;9.40;99.90;;;-146.41;100.00;57768.22;5021128;28;1323;-68
2024/02/09 04:25:12;;;;;;;;;;;9.40;99.90;;;-146.41;100.00;57768.22;5020942;28;1303;-68
2024/02/09 04:27:39;;;;;;;;;;;9.40;99.90;;;-146.41;100.00;57768.22;5025864;28;2048;-68
2024/02/09 04:30:06;;;;;;;;;;;9.40;99.90;;;-146.41;100.00;57768.22;5020362;28;1145;-68
2024/02/09 04:32:33;;;;;;;;;;;9.40;99.90;;;-146.41;100.00;57768.22;5023379;28;3259;-69
2024/02/09 04:35:00;;;;;;;;;;;9.50;99.90;;;-146.41;100.00;57768.22;5022463;28;1391;-68
2024/02/09 04:37:29;;;;;;;;;;;9.40;99.90;;;-146.41;100.00;57768.22;5026169;28;1416;-69
2024/02/09 04:39:55;;;;;;;;;;;9.40;99.90;;;-146.41;100.00;57768.22;5021140;28;2105;-69
2024/02/09 04:42:22;;;;;;;;;;;9.50;99.90;;;-146.41;100.00;57768.22;5022637;28;1051;-69
2024/02/09 04:44:49;;;;;;;;;;;9.50;99.90;;;-146.41;100.00;57768.22;5019079;28;1375;-68
2024/02/09 04:47:19;;;;;;;;;;;9.50;99.90;;;-146.41;100.00;57768.22;5020743;28;2381;-68
2024/02/09 04:49:49;;;;;;;;;;;9.50;99.90;;;-146.41;100.00;57768.22;5024815;28;2862;-69
2024/02/09 04:52:16;;;;;;;;;;;9.50;99.90;;;-146.41;100.00;57768.22;5023730;28;1017;-69
2024/02/09 04:54:43;;;;;;;;;;;9.50;99.90;;;-146.41;100.00;57768.22;5022561;28;1320;-68
2024/02/09 04:57:11;;;;;;;;;;;9.40;99.90;;;-146.41;100.00;57768.22;5018313;28;1042;-69
2024/02/09 04:59:38;;;;;;;;;;;9.50;99.90;;;-146.41;100.00;57768.22;5020144;28;1915;-68
2024/02/09 05:02:05;;;;;;;;;;;9.40;99.90;;;-146.41;100.00;57768.22;5025148;28;2044;-68
2024/02/09 05:04:32;;;;;;;;;;;9.50;99.90;;;-146.41;100.00;57768.22;5021146;28;1403;-69
2024/02/09 05:06:59;;;;;;;;;;;9.50;99.90;;;-146.41;100.00;57768.22;5020138;28;1394;-69
2024/02/09 05:09:29;;;;;;;;;;;9.50;99.90;;;-146.41;100.00;57768.22;5022402;28;1066;-68
2024/02/09 05:11:58;;;;;;;;;;;9.50;99.90;;;-146.41;100.00;57768.22;5018109;28;1005;-69
2024/02/09 05:14:25;;;;;;;;;;;9.50;99.90;;;-146.41;100.00;57768.22;5019849;28;1324;-69
2024/02/09 05:16:53;;;;;;;;;;;9.60;99.90;;;-146.41;100.00;57768.22;5021378;28;3217;-69
2024/02/09 05:19:20;;;;;;;;;;;9.60;99.90;;;-146.41;100.00;57768.22;5020007;28;1425;-69
2024/02/09 05:21:48;;;;;;;;;;;9.50;99.90;;;-146.41;100.00;57768.22;5023089;28;1985;-69
2024/02/09 05:24:14;;;;;;;;;;;9.50;99.90;;;-146.41;100.00;57768.22;5022044;28;1264;-69
2024/02/09 05:26:41;;;;;;;;;;;9.60;99.90;;;-146.41;100.00;57768.22;5021423;28;1161;-69
2024/02/09 05:29:08;;;;;;;;;;;9.60;99.90;;;-146.41;100.00;57768.22;5022727;28;1073;-69
2024/02/09 05:31:41;;;;;;;;;;;9.60;99.90;;;-146.41;100.00;57768.22;5017459;28;2029;-68
2024/02/09 05:34:09;;;;;;;;;;;9.60;99.90;;;-146.41;100.00;57768.22;5020983;28;1418;-68
2024/02/09 05:36:36;;;;;;;;;;;9.60;99.90;;;-146.41;100.00;57768.22;5019869;28;1164;-69
2024/02/09 05:39:03;;;;;;;;;;;9.60;99.90;;;-146.41;100.00;57768.22;5020992;28;1037;-69
2024/02/09 05:41:30;;;;;;;;;;;9.60;99.90;;;-146.41;100.00;57768.22;5018511;28;1967;-69
2024/02/09 05:43:58;;;;;;;;;;;9.70;99.90;;;-146.41;100.00;57768.22;5022334;28;2016;-69
2024/02/09 05:46:25;;;;;;;;;;;9.60;99.90;;;-146.41;100.00;57768.22;5021644;28;2612;-68
2024/02/09 05:48:55;;;;;;;;;;;9.70;99.90;;;-146.41;100.00;57768.22;5018976;28;1448;-68
2024/02/09 05:51:23;;;;;;;;;;;9.60;99.90;;;-146.41;100.00;57768.22;5021950;28;2886;-69
2024/02/09 05:53:50;;;;;;;;;;;9.60;99.90;;;-146.41;100.00;57768.22;5022728;28;1237;-69
2024/02/09 05:56:21;;;;;;;;;;;9.70;99.90;;;-146.41;100.00;57768.22;5024791;28;1442;-69
2024/02/09 05:58:51;;;;;;;;;;;9.70;99.90;;;-146.41;100.00;57768.22;5020517;28;1413;-68
2024/02/09 06:01:22;;;;;;;;;;;9.70;99.90;;;-146.41;100.00;57768.22;5020703;28;3330;-68
2024/02/09 06:03:49;;;;;;;;;;;9.80;99.90;;;-146.41;100.00;57768.22;5010130;28;1832;-69
2024/02/09 06:06:20;;;;;;;;;;;9.80;99.90;;;-146.41;100.00;57768.22;5018772;28;1387;-69
2024/02/09 06:08:49;;;;;;;;;;;9.80;99.90;;;-146.41;100.00;57768.22;5017284;28;1185;-68
2024/02/09 06:11:16;;;;;;;;;;;9.80;99.90;;;-146.41;100.00;57768.22;5019589;28;1091;-69
2024/02/09 06:13:47;;;;;;;;;;;9.80;99.90;;;-146.41;100.00;57768.22;5016089;28;1339;-69
2024/02/09 06:16:15;;;;;;;;;;;9.80;99.90;;;-146.41;100.00;57768.22;5019308;28;2410;-69
2024/02/09 06:18:45;;;;;;;;;;;9.80;99.90;;;-146.41;100.00;57768.22;5020050;28;1389;-69
2024/02/09 06:21:18;;;;;;;;;;;9.80;99.90;;;-146.41;100.00;57768.22;5015251;28;1902;-68
2024/02/09 06:23:46;;;;;;;;;;;9.80;99.90;;;-146.41;100.00;57768.22;5017644;28;1080;-69
2024/02/09 06:26:16;;;;;;;;;;;9.80;99.90;;;-146.41;100.00;57768.22;5017068;28;1197;-69
2024/02/09 06:28:46;;;;;;;;;;;9.90;99.90;;;-146.41;100.00;57768.22;5017512;28;1932;-68
2024/02/09 06:31:23;;;;;;;;;;;9.80;99.90;;;-146.41;100.00;57768.22;5020697;28;2437;-68
2024/02/09 06:33:54;;;;;;;;;;;9.90;99.90;;;-146.41;100.00;57768.22;5015723;28;2682;-68
2024/02/09 06:36:22;;;;;;;;;;;9.80;99.90;;;-146.41;100.00;57768.22;5019223;28;1081;-69
2024/02/09 06:38:49;;;;;;;;;;;9.80;99.90;;;-146.41;100.00;57768.22;5021525;28;1142;-69
2024/02/09 06:41:16;;;;;;;;;;;9.80;99.90;;;-146.41;100.00;57768.22;5017488;28;1955;-69
2024/02/09 06:43:43;;;;;;;;;;;9.80;99.90;;;-146.41;100.00;57768.22;5018613;28;1134;-69
2024/02/09 06:46:11;;;;;;;;;;;9.80;99.90;;;-146.41;100.00;57768.22;5018707;28;2953;-68
2024/02/09 06:48:39;;;;;;;;;;;9.90;99.90;;;-146.41;100.00;57768.22;5015693;28;2783;-69
2024/02/09 06:51:07;;;;;;;;;;;9.80;99.90;;;-146.41;100.00;57768.22;5018815;28;1405;-69
2024/02/09 06:53:34;;;;;;;;;;;9.90;99.90;;;-146.41;100.00;57768.22;5020164;28;1109;-69
2024/02/09 06:56:01;;;;;;;;;;;9.80;99.90;;;-146.41;100.00;57768.22;5016390;28;1449;-69
2024/02/09 06:58:29;;;;;;;;;;;9.80;99.90;;;-146.41;100.00;57768.22;5018129;28;1426;-68
2024/02/09 07:00:56;;;;;;;;;;;9.80;99.90;;;-146.41;100.00;57768.22;5019017;28;2155;-69
2024/02/09 07:03:25;;;;;;;;;;;9.90;99.90;;;-146.41;100.00;57768.22;5018306;28;2027;-69
2024/02/09 07:05:54;;;;;;;;;;;9.80;99.90;;;-146.41;100.00;57768.22;5018212;28;1405;-68
2024/02/09 07:08:30;;;;;;;;;;;9.90;99.90;;;-146.41;100.00;57768.22;5015843;28;1104;-69
2024/02/09 07:10:59;;;;;;;;;;;9.80;99.90;;;-146.41;100.00;57768.22;5020541;28;1247;-71
2024/02/09 07:13:28;;;;;;;;;;;9.80;99.90;;;-146.41;100.00;57768.22;5019513;28;1169;-69
2024/02/09 07:15:55;;;;;;;;;;;9.80;99.90;;;-146.41;100.00;57768.22;5019367;28;1937;-68
2024/02/09 07:18:22;;;;;;;;;;;9.80;99.90;;;-146.41;100.00;57768.22;5020226;28;1297;-69
2024/02/09 07:20:49;;;;;;;;;;;9.90;99.90;;;-146.41;100.00;57768.22;5017801;28;1993;-69
2024/02/09 07:23:17;;;;;;;;;;;9.90;99.90;;;-146.41;100.00;57768.22;5021308;28;1072;-69
2024/02/09 07:25:44;;;;;;;;;;;9.90;99.90;;;-146.41;100.00;57768.22;5017098;28;1398;-69
2024/02/09 07:28:13;;;;;;;;;;;10.00;99.90;;;-146.41;100.00;57768.22;5022989;28;1401;-68
2024/02/09 07:30:40;;;;;;;;;;;10.00;99.90;;;-146.41;100.00;57768.22;5018641;28;3213;-68
2024/02/09 07:33:06;;;;;;;;;;;10.00;99.90;;;-146.41;100.00;57768.22;5018981;28;2407;-69
2024/02/09 07:35:35;;;;;;;;;;;10.00;99.90;;;-146.41;100.00;57768.22;5020991;28;1390;-68
2024/02/09 07:38:02;;;;;;;;;;;10.00;99.90;;;-146.41;100.00;57768.22;5022326;28;1199;-68
2024/02/09 07:40:29;;;;;;;;;;;9.90;99.90;;;-146.41;100.00;57768.22;5023963;28;1989;-69
2024/02/09 07:42:56;;;;;;;;;;;10.00;99.90;;;-146.41;100.00;57768.22;5025690;28;1069;-69
2024/02/09 07:45:24;;;;;;;;;;;10.00;99.90;;;-146.41;100.00;57768.22;5021822;28;1347;-68
2024/02/09 07:47:50;;;;;;;;;;;10.00;99.90;;;-146.41;100.00;57768.22;5022651;28;2687;-68
2024/02/09 07:50:17;;;;;;;;;;;10.00;99.90;;;-146.41;100.00;57768.22;5024976;28;1326;-69
2024/02/09 07:52:44;;;;;;;;;;;10.00;99.90;;;-146.41;100.00;57768.22;5021384;28;2894;-68
2024/02/09 07:55:13;;;;;;;;;;;10.00;99.90;;;-146.41;100.00;57768.22;5022955;28;1391;-69
2024/02/09 07:57:43;;;;;;;;;;;10.10;99.90;;;-146.41;100.00;57768.22;5022678;28;1129;-68
2024/02/09 08:00:11;;;;;;;;;;;10.10;99.90;;;-146.41;100.00;57768.22;5020987;28;2428;-69
2024/02/09 08:02:40;;;;;;;;;;;10.00;99.90;;;-146.41;100.00;57768.22;5019907;28;1922;-68
2024/02/09 08:05:08;;;;;;;;;;;10.20;99.90;;;-146.41;100.00;57768.22;5021813;28;1431;-68
2024/02/09 08:07:36;;;;;;;;;;;10.10;99.90;;;-146.41;100.00;57768.22;5020314;28;1350;-67
2024/02/09 08:10:03;;;;;;;;;;;10.20;99.90;;;-146.41;100.00;57768.22;5020405;28;1123;-68
2024/02/09 08:12:32;;;;;;;;;;;10.20;99.90;;;-146.41;100.00;57768.22;5022443;28;1084;-69
2024/02/09 08:14:59;;;;;;;;;;;10.20;99.90;;;-146.41;100.00;57768.22;5016440;28;3222;-67
2024/02/09 08:17:27;;;;;;;;;;;10.20;99.90;;;-146.41;100.00;57768.22;5020110;28;1396;-69
2024/02/09 08:19:54;;;;;;;;;;;10.30;99.90;;;-146.41;100.00;57768.22;5022538;28;1081;-69
2024/02/09 08:22:22;;;;;;;;;;;10.30;99.90;;;-146.41;100.00;57768.22;5021157;28;1954;-69
2024/02/09 08:24:50;;;;;;;;;;;10.40;99.90;;;-146.41;100.00;57768.22;5020492;28;1308;-69
2024/02/09 08:27:17;;;;;;;;;;;10.40;99.90;;;-146.41;100.00;57768.22;5016461;28;1042;-69
2024/02/09 08:29:44;;;;;;;;;;;10.50;99.90;;;-146.41;100.00;57768.22;5020920;28;2579;-69
2024/02/09 08:32:10;;;;;;;;;;;10.50;99.90;;;-146.41;100.00;57768.22;5018778;28;1266;-68
2024/02/09 08:34:37;;;;;;;;;;;10.60;99.90;;;-146.41;100.00;57768.22;5021677;28;1307;-69
2024/02/09 08:37:05;;;;;;;;;;;10.60;99.90;;;-146.41;100.00;57768.22;5021443;28;1397;-69
2024/02/09 08:39:31;;;;;;;;;;;10.70;99.90;;;-146.41;100.00;57768.22;5018049;28;1228;-69
2024/02/09 08:41:58;;;;;;;;;;;10.70;99.90;;;-146.41;100.00;57768.22;5017035;28;1902;-69
2024/02/09 08:44:25;;;;;;;;;;;10.70;99.90;;;-146.41;100.00;57768.22;5021738;28;2525;-69
2024/02/09 08:46:52;;;;;;;;;;;10.70;99.90;;;-146.41;100.00;57768.22;5016292;28;2791;-69
2024/02/09 08:49:21;;;;;;;;;;;10.70;99.90;;;-146.41;100.00;57768.22;5016010;28;2696;-69
2024/02/09 08:51:50;;;;;;;;;;;10.70;99.90;;;-146.41;100.00;57768.22;5020176;28;2811;-69
2024/02/09 08:54:17;;;;;;;;;;;10.70;99.90;;;-146.41;100.00;57768.22;5019628;28;1288;-69
2024/02/09 08:56:43;;;;;;;;;;;10.70;99.90;;;-146.41;100.00;57768.22;5016985;28;1292;-69
2024/02/09 08:59:10;;;;;;;;;;;10.80;99.90;;;-146.41;100.00;57768.22;5020766;28;1189;-68
2024/02/09 09:01:40;;;;;;;;;;;10.80;99.90;;;-146.41;100.00;57768.22;5018117;28;1996;-69
2024/02/09 09:04:07;;;;;;;;;;;10.90;99.90;;;-146.41;100.00;57768.22;5021372;28;3338;-69
2024/02/09 09:06:34;;;;;;;;;;;10.90;99.90;;;-146.41;100.00;57768.22;5020321;28;1449;-68
2024/02/09 09:09:01;;;;;;;;;;;10.90;99.90;;;-146.41;100.00;57768.22;5017422;28;1085;-68
2024/02/09 09:11:28;;;;;;;;;;;11.00;99.90;;;-146.41;100.00;57768.22;5021144;28;1145;-68
2024/02/09 09:13:54;;;;;;;;;;;11.10;99.90;;;-146.41;100.00;57768.22;5015630;28;1304;-69
2024/02/09 09:16:21;;;;;;;;;;;11.10;99.90;;;-146.41;100.00;57768.22;5020825;28;1043;-68
2024/02/09 09:18:50;;;;;;;;;;;11.10;99.90;;;-146.41;100.00;57768.22;5015599;28;1348;-68
2024/02/09 09:21:18;;;;;;;;;;;11.10;99.90;;;-146.41;100.00;57768.22;5021034;28;2972;-69
2024/02/09 09:23:45;;;;;;;;;;;11.20;99.90;;;-146.41;100.00;57768.22;5020482;28;1157;-69
2024/02/09 09:26:11;;;;;;;;;;;11.20;99.90;;;-146.41;100.00;57768.22;5022737;28;1356;-69
2024/02/09 09:28:53;;;;;;;;;;;11.30;99.90;;;-146.41;100.00;57768.22;5008079;28;1037;-69
2024/02/09 09:31:20;;;;;;;;;;;11.30;99.90;;;-146.41;100.00;57768.22;5022952;28;2422;-69
2024/02/09 09:33:48;;;;;;;;;;;11.30;99.90;;;-146.41;100.00;57768.22;5016720;28;2782;-69
2024/02/09 09:36:15;;;;;;;;;;;11.30;99.90;;;-146.41;100.00;57768.22;5019715;28;1534;-70
2024/02/09 09:38:44;;;;;;;;;;;11.40;99.90;;;-146.41;100.00;57768.22;5020947;28;1049;-69
2024/02/09 09:41:12;;;;;;;;;;;11.50;99.90;;;-146.41;100.00;57768.22;5020254;28;1918;-69
2024/02/09 09:43:39;;;;;;;;;;;11.50;99.90;;;-146.41;100.00;57768.22;5012296;28;1035;-69
2024/02/09 09:46:11;;;;;;;;;;;11.60;99.90;;;-146.41;100.00;57768.22;5018962;28;3170;-69
2024/02/09 09:48:41;;;;;;;;;;;11.50;99.90;;;-146.41;100.00;57768.22;5018618;28;2621;-69
2024/02/09 09:51:09;;;;;;;;;;;11.50;99.90;;;-146.41;100.00;57768.22;5020478;28;2774;-68
2024/02/09 09:53:42;;;;;;;;;;;11.50;99.90;;;-146.41;100.00;57768.22;5020874;28;1191;-69
2024/02/09 09:56:09;;;;;;;;;;;11.50;99.90;;;-146.41;100.00;57768.22;5022262;28;1360;-69
2024/02/09 09:58:37;;;;;;;;;;;11.50;99.90;;;-146.41;100.00;57768.22;5021454;28;1163;-70
2024/02/09 10:01:06;;;;;;;;;;;11.60;99.90;;;-146.41;100.00;57768.22;5021344;28;1914;-68
2024/02/09 10:03:42;;;;;;;;;;;11.60;99.90;;;-146.41;100.00;57768.22;5019213;28;2083;-69
2024/02/09 10:06:09;;;;;;;;;;;11.60;99.90;;;-146.41;100.00;57768.22;5021033;28;1472;-69
2024/02/09 10:08:36;;;;;;;;;;;11.60;99.90;;;-146.41;100.00;57768.22;5018957;28;1121;-69
2024/02/09 10:11:06;;;;;;;;;;;11.70;99.90;;;-146.41;100.00;57768.22;5016794;28;1086;-68
2024/02/09 10:13:37;;;;;;;;;;;11.70;99.90;;;-146.41;100.00;57768.22;5023274;28;2632;-69
2024/02/09 10:16:05;;;;;;;;;;;11.80;99.90;;;-146.41;100.00;57768.22;5020619;28;1345;-69
2024/02/09 10:18:37;;;;;;;;;;;11.80;99.90;;;-146.41;100.00;57768.22;5019767;28;2783;-69
2024/02/09 10:21:08;;;;;;;;;;;11.80;99.90;;;-146.41;100.00;57768.22;5034587;28;2047;-70
2024/02/09 10:23:36;;;;;;;;;;;11.90;99.90;;;-146.41;100.00;57768.22;5019227;28;1499;-69
2024/02/09 10:26:05;;;;;;;;;;;12.00;99.90;;;-146.41;100.00;57768.22;5018273;28;1742;-69
2024/02/09 10:28:36;;;;;;;;;;;12.00;99.90;;;-146.41;100.00;57768.22;5022074;28;3188;-69
2024/02/09 10:31:03;;;;;;;;;;;12.10;99.90;;;-146.41;100.00;57768.22;5020544;28;1262;-69
2024/02/09 10:33:30;;;;;;;;;;;12.10;99.90;;;-146.41;100.00;57768.22;5019124;28;1341;-69
2024/02/09 10:35:59;;;;;;;;;;;12.10;99.90;;;-146.41;100.00;57768.22;5018992;28;1256;-69
2024/02/09 10:38:27;;;;;;;;;;;12.20;99.90;;;-146.41;100.00;57768.22;5017809;28;2062;-68
2024/02/09 10:40:55;;;;;;;;;;;12.20;99.90;;;-146.41;100.00;57768.22;5014505;28;2031;-69
2024/02/09 10:43:25;;;;;;;;;;;12.20;99.90;;;-146.41;100.00;57768.22;5018572;28;1894;-69
2024/02/09 10:45:53;;;;;;;;;;;12.10;99.90;;;-146.41;100.00;57768.22;5015311;28;2580;-69
2024/02/09 10:48:35;;;;;;;;;;;12.10;99.90;;;-146.41;100.00;57768.22;5006760;28;2625;-69
2024/02/09 10:51:05;;;;;;;;;;;12.10;99.90;;;-146.41;100.00;57768.22;5020336;28;1078;-69
2024/02/09 10:53:34;;;;;;;;;;;12.10;99.90;;;-146.41;100.00;57768.22;5018012;28;1082;-69
2024/02/09 10:56:03;;;;;;;;;;;12.00;99.90;;;-146.41;100.00;57768.22;5018884;28;1315;-69
2024/02/09 10:58:33;;;;;;;;;;;12.00;99.90;;;-146.41;100.00;57768.22;5016112;28;1042;-68
2024/02/09 11:01:04;;;;;;;;;;;12.00;99.90;;;-146.41;100.00;57768.22;5018562;28;1976;-69
2024/02/09 11:03:32;;;;;;;;;;;12.00;99.90;;;-146.41;100.00;57768.22;5017078;28;2512;-69
2024/02/09 11:06:04;;;;;;;;;;;11.80;99.90;;;-146.41;100.00;57768.22;5022315;28;1913;-69
2024/02/09 11:08:35;;;;;;;;;;;11.70;99.90;;;-146.41;100.00;57768.22;5017225;28;1001;-69
2024/02/09 11:11:03;;;;;;;;;;;11.70;99.90;;;-146.41;100.00;57768.22;5001514;28;1150;-69
2024/02/09 11:13:31;;;;;;;;;;;11.70;99.90;;;-146.41;100.00;57768.22;5017501;28;1112;-69
2024/02/09 11:15:58;;;;;;;;;;;11.70;99.90;;;-146.41;100.00;57768.22;5017639;28;1292;-69
2024/02/09 11:18:35;;;;;;;;;;;11.70;99.90;;;-146.41;100.00;57768.22;5013552;28;3105;-69
2024/02/09 11:21:02;;;;;;;;;;;11.80;99.90;;;-146.41;100.00;57768.22;5014982;28;1074;-69
2024/02/09 11:23:33;;;;;;;;;;;11.90;99.90;;;-146.41;100.00;57768.22;5016713;28;1997;-70
2024/02/09 11:26:00;;;;;;;;;;;11.90;99.90;;;-146.41;100.00;57768.22;5017616;28;1561;-68
2024/02/09 11:28:27;;;;;;;;;;;11.90;99.90;;;-146.41;100.00;57768.22;5020772;28;1035;-68
2024/02/09 11:30:54;;;;;;;;;;;11.90;99.90;;;-146.41;100.00;57768.22;5021600;28;2605;-69
2024/02/09 11:33:23;;;;;;;;;;;11.90;99.90;;;-146.41;100.00;57768.22;5023885;28;1463;-69
2024/02/09 11:35:51;;;;;;;;;;;11.90;99.90;;;-146.41;100.00;57768.22;5020204;28;1365;-69
2024/02/09 11:38:21;;;;;;;;;;;12.00;99.90;;;-146.41;100.00;57768.22;5022087;28;1239;-69
2024/02/09 11:40:50;;;;;;;;;;;12.00;99.90;;;-146.41;100.00;57768.22;5026179;28;1147;-68
2024/02/09 11:43:18;;;;;;;;;;;11.80;99.90;;;-146.41;100.00;57768.22;5023772;28;1902;-68
2024/02/09 11:45:45;;;;;;;;;;;11.80;99.90;;;-146.41;100.00;57768.22;5024497;28;2556;-69
2024/02/09 11:48:14;;;;;;;;;;;11.80;99.90;;;-146.41;100.00;57768.22;5027095;28;1231;-68
2024/02/09 11:50:43;;;;;;;;;;;11.70;99.90;;;-146.41;100.00;57768.22;5027314;28;2708;-69
2024/02/09 11:53:10;;;;;;;;;;;11.70;99.90;;;-146.41;100.00;57768.22;5031219;28;1247;-69
2024/02/09 11:55:42;;;;;;;;;;;11.80;99.90;;;-146.41;100.00;57768.22;5025041;28;1466;-69
2024/02/09 11:58:11;;;;;;;;;;;11.80;99.90;;;-146.41;100.00;57768.22;5026098;28;1284;-70
2024/02/09 12:00:40;;;;;;;;;;;11.90;99.90;;;-146.41;100.00;57768.22;5029684;28;3113;-69
2024/02/09 12:03:09;;;;;;;;;;;11.80;99.90;;;-146.41;100.00;57768.22;5026447;28;1942;-69
2024/02/09 12:05:42;;;;;;;;;;;11.80;99.90;;;-146.41;100.00;57768.22;5022972;28;2483;-68
2024/02/09 12:08:10;;;;;;;;;;;11.70;99.90;;;-146.41;100.00;57768.22;5025864;28;1092;-69
2024/02/09 12:10:37;;;;;;;;;;;11.80;99.90;;;-146.41;100.00;57768.22;5028900;28;1038;-69
2024/02/09 12:13:05;;;;;;;;;;;11.80;99.90;;;-146.41;100.00;57768.22;5026712;28;2014;-69
2024/02/09 12:15:32;;;;;;;;;;;11.80;99.90;;;-146.41;100.00;57768.22;5022551;28;1301;-69
2024/02/09 12:18:01;;;;;;;;;;;11.90;99.90;;;-146.41;100.00;57768.22;5029776;28;1186;-69
2024/02/09 12:20:28;;;;;;;;;;;11.90;99.90;;;-146.41;100.00;57768.22;5025147;28;2432;-68
2024/02/09 12:23:00;;;;;;;;;;;12.00;99.90;;;-146.41;100.00;57768.22;5030946;28;1910;-69
2024/02/09 12:25:27;;;;;;;;;;;11.90;99.90;;;-146.41;100.00;57768.22;5035066;28;1378;-69
2024/02/09 12:27:58;;;;;;;;;;;12.00;99.90;;;-146.41;100.00;57768.22;5034011;28;1378;-69
2024/02/09 12:30:28;;;;;;;;;;;12.00;99.90;;;-146.41;100.00;57768.22;5030237;28;1281;-69
2024/02/09 12:33:00;;;;;;;;;;;12.00;99.90;;;-146.41;100.00;57768.22;5028129;28;2158;-69
2024/02/09 12:35:28;;;;;;;;;;;11.90;99.90;;;-146.41;100.00;57768.22;5031493;28;1351;-69
2024/02/09 12:37:57;;;;;;;;;;;11.90;99.90;;;-146.41;100.00;57768.22;5031300;28;1185;-69
2024/02/09 12:40:24;;;;;;;;;;;11.90;99.90;;;-146.41;100.00;57768.22;5026757;28;1279;-69
2024/02/09 12:42:55;;;;;;;;;;;11.90;99.90;;;-146.41;100.00;57768.22;5026651;28;1914;-69
2024/02/09 12:45:31;;;;;;;;;;;11.80;99.90;;;-146.41;100.00;57768.22;5030742;28;3188;-69
2024/02/09 12:47:58;;;;;;;;;;;11.90;99.90;;;-146.41;100.00;57768.22;5028496;28;1204;-69
2024/02/09 12:50:26;;;;;;;;;;;11.90;99.90;;;-146.41;100.00;57768.22;5028756;28;1283;-69
2024/02/09 12:52:55;;;;;;;;;;;11.90;99.90;;;-146.41;100.00;57768.22;5029935;28;1148;-69
2024/02/09 12:55:22;;;;;;;;;;;11.90;99.90;;;-146.41;100.00;57768.22;5034317;28;1300;-69
2024/02/09 12:57:54;;;;;;;;;;;12.00;99.90;;;-146.41;100.00;57768.22;5028753;28;1130;-69
2024/02/09 13:00:23;;;;;;;;;;;12.00;99.90;;;-146.41;100.00;57768.22;5031238;28;2421;-69